Kingston, WA

11:16 PM PDT on September 03, 2015 (GMT -0700)
KWAKINGS19 | | Change Station
CLOSE
Current Station
Personal Weather Station
Location: Kingston, WA
Elevation: 200 ft
Nearby Weather Stations

Elev 200 ft 47.79 °N, 122.55 °W | Updated 41 seconds ago

Overcast
Overcast
51.6 °F
Feels Like 51.6 °F
N
0.0
Wind Variable Wind from NW
Gusts 0.0 mph

Today
High -- | Low -- °F
--% Chance of Precip.
Yesterday
High -- | Low -- °F
Precip. -- in
6:30 AM 7:47 PM
Waning Gibbous, 63% visible
Pressure 30.01 in
Visibility 10.0 miles
Clouds Mostly Cloudy 4700 ft
Overcast 6000 ft
Dew Point 50 °F
Humidity 96%
Rainfall 0.01 in
Snow Depth Not available.
UV 0 out of 12
Pollen 1.50 out of 12
Air Quality Not available.
Flu Activity Not available.
METAR KPAE 040553Z AUTO 08003KT 10SM BKN047 OVC060 12/09 A3001 RMK AO2 SLP162 60014 T01170089 10156 20106 50000
Pressure 30.01 in
Visibility 10.0 miles
Clouds Mostly Cloudy 4700 ft
Overcast 6000 ft
Dew Point 50 °F
Humidity 96%
Rainfall 0.01 in
Snow Depth Not available.
UV 0 out of 12
Pollen 1.50 out of 12
Air Quality Not available.
Flu Activity Not available.
METAR KPAE 040553Z AUTO 08003KT 10SM BKN047 OVC060 12/09 A3001 RMK AO2 SLP162 60014 T01170089 10156 20106 50000

10-Day Weather Forecast

×

Almanac

Astronomy

Sep. 03, 2015 Rise Set
Actual Time
Civil Twilight
Nautical Twilight
Astronomical Twilight
Moon
Length of Visible Light
Length of Day
Tomorrow will be .
, % of the Moon is Illuminated

Today's Extremes

State Highs State Lows

Community

WunderPhotos

Upload Photos

1,852,132 photos uploaded!

WunderBlogs® & News

Nearby

Air Quality

  Air Quality AQ Index Pollutant
Not available.

Snow Depth

Station Depth Elevation

Earthquake Activity

City Distance Mag. Time & Date
Minimum magnitude displayed is 2.5.

Coastal Water Temperatures

Place Temperature

Stations

Nearby Weather Stations

Station Location Temp. Windchill Dew Point Humidity Wind Precip. Elev Updated Type